Time;durP1;ratioP1;P1;durP2;ratioP2;P2;SDS_P1;SDS_P2;PMS_P1;PMS_P2;Temp;Humidity;BMP_temperature;BMP_pressure;BME280_temperature;BME280_humidity;BME280_pressure;Samples;Min_cycle;Max_cycle;Signal;HPM_P1;HPM_P2
2021/05/02 00:01:23;;;;;;;30.67;22.10;;;8.40;99.90;;;;;;5014444;28;20471;-77
2021/05/02 00:03:48;;;;;;;29.97;19.77;;;8.40;99.90;;;;;;5011717;28;20431;-77
2021/05/02 00:06:17;;;;;;;36.37;22.50;;;8.40;99.90;;;;;;4997457;28;20274;-78
2021/05/02 00:08:42;;;;;;;32.30;22.00;;;8.40;99.90;;;;;;5017369;28;20180;-78
2021/05/02 00:11:10;;;;;;;30.80;21.27;;;8.30;99.90;;;;;;5015111;28;20422;-78
2021/05/02 00:13:37;;;;;;;31.97;21.93;;;8.30;99.90;;;;;;5014172;28;20172;-78
2021/05/02 00:16:03;;;;;;;37.37;24.00;;;8.30;99.90;;;;;;5013820;28;20455;-78
2021/05/02 00:18:29;;;;;;;31.60;23.00;;;8.20;99.90;;;;;;5014186;28;20453;-77
2021/05/02 00:21:04;;;;;;;30.43;22.23;;;8.20;99.90;;;;;;5014748;28;20411;-77
2021/05/02 00:23:35;;;;;;;32.37;21.20;;;8.20;99.90;;;;;;5013998;28;20419;-77
2021/05/02 00:26:01;;;;;;;34.40;21.80;;;8.20;99.90;;;;;;5014278;28;20408;-77
2021/05/02 00:28:28;;;;;;;30.90;22.73;;;8.20;99.90;;;;;;5012010;28;20431;-77
2021/05/02 00:30:55;;;;;;;29.37;20.80;;;8.10;99.90;;;;;;5014486;28;20704;-77
2021/05/02 00:33:22;;;;;;;30.83;22.33;;;8.10;99.90;;;;;;5014785;28;20755;-77
2021/05/02 00:35:48;;;;;;;33.67;22.10;;;8.10;99.90;;;;;;5014710;28;20961;-77
2021/05/02 00:38:14;;;;;;;32.77;22.97;;;8.10;99.90;;;;;;5014232;28;20430;-77
2021/05/02 00:40:41;;;;;;;33.23;23.20;;;8.10;99.90;;;;;;5014334;28;20408;-77
2021/05/02 00:43:18;;;;;;;30.40;23.13;;;8.00;99.90;;;;;;5014527;28;20164;-78
2021/05/02 00:45:54;;;;;;;30.80;21.73;;;8.00;99.90;;;;;;5029750;28;20780;-78
2021/05/02 00:48:26;;;;;;;31.63;24.20;;;8.00;99.90;;;;;;5014396;28;20449;-78
2021/05/02 00:51:00;;;;;;;34.53;24.90;;;8.00;99.90;;;;;;4997423;28;20430;-78
2021/05/02 00:54:02;;;;;;;31.83;22.17;;;8.00;99.90;;;;;;5013744;28;20792;-77
2021/05/02 00:56:35;;;;;;;30.10;22.30;;;8.00;99.90;;;;;;5013802;28;20462;-78
2021/05/02 00:59:03;;;;;;;33.47;23.83;;;7.90;99.90;;;;;;5013390;28;20905;-78
2021/05/02 01:01:36;;;;;;;33.87;23.80;;;7.90;99.90;;;;;;5013611;28;20426;-77
2021/05/02 01:04:03;;;;;;;37.43;25.17;;;7.90;99.90;;;;;;5025684;28;20419;-76
2021/05/02 01:06:30;;;;;;;35.80;24.80;;;7.80;99.90;;;;;;5010543;28;20450;-78
2021/05/02 01:09:00;;;;;;;33.67;23.23;;;7.80;99.90;;;;;;5013483;28;20509;-78
2021/05/02 01:11:28;;;;;;;31.90;24.77;;;7.80;99.90;;;;;;5020372;28;20407;-78
2021/05/02 01:13:58;;;;;;;31.60;22.70;;;7.80;99.90;;;;;;5017137;28;20407;-77
2021/05/02 01:16:26;;;;;;;37.50;25.63;;;7.80;99.90;;;;;;4997637;28;20509;-78
2021/05/02 01:18:54;;;;;;;38.40;24.40;;;7.80;99.90;;;;;;5012541;28;20800;-77
2021/05/02 01:21:27;;;;;;;33.57;24.70;;;7.80;99.90;;;;;;5015395;28;20418;-79
2021/05/02 01:23:53;;;;;;;35.30;26.03;;;7.80;99.90;;;;;;5014869;28;20411;-79
2021/05/02 01:26:22;;;;;;;31.50;24.10;;;7.80;99.90;;;;;;5015774;28;20419;-78
2021/05/02 01:28:52;;;;;;;41.27;25.63;;;7.80;99.90;;;;;;5013965;28;20191;-77
2021/05/02 01:31:18;;;;;;;35.43;25.87;;;7.80;99.90;;;;;;5021089;28;20407;-78
2021/05/02 01:33:45;;;;;;;38.00;24.43;;;7.80;99.90;;;;;;5015181;28;20411;-78
2021/05/02 01:36:11;;;;;;;35.07;23.93;;;7.70;99.90;;;;;;5037775;28;20206;-77
2021/05/02 01:38:37;;;;;;;31.00;26.37;;;7.70;99.90;;;;;;5035448;28;20383;-78
2021/05/02 01:41:03;;;;;;;38.03;24.60;;;7.80;99.90;;;;;;5019723;28;20422;-78
2021/05/02 01:43:28;;;;;;;38.00;26.60;;;7.70;99.90;;;;;;5036230;28;20418;-78
2021/05/02 01:45:55;;;;;;;39.53;27.10;;;7.70;99.90;;;;;;5009681;28;20214;-77
2021/05/02 01:48:22;;;;;;;33.00;24.60;;;7.70;99.90;;;;;;5022907;28;20180;-78
2021/05/02 01:50:57;;;;;;;38.53;25.30;;;7.70;99.90;;;;;;5025110;28;20398;-76
2021/05/02 01:53:23;;;;;;;33.20;23.77;;;7.70;99.90;;;;;;5016066;28;20450;-77
2021/05/02 01:55:52;;;;;;;39.57;26.30;;;7.70;99.90;;;;;;5017585;28;20457;-77
2021/05/02 01:58:20;;;;;;;35.60;26.20;;;7.70;99.90;;;;;;5015529;28;20565;-78
2021/05/02 02:01:02;;;;;;;38.80;25.30;;;7.70;99.90;;;;;;5016891;28;20495;-77
2021/05/02 02:03:28;;;;;;;36.07;26.00;;;7.70;99.90;;;;;;5016503;28;20437;-78
2021/05/02 02:05:54;;;;;;;40.50;27.40;;;7.70;99.90;;;;;;5016868;28;20486;-78
2021/05/02 02:08:20;;;;;;;40.03;26.23;;;7.70;99.90;;;;;;4998399;28;20192;-77
2021/05/02 02:10:48;;;;;;;34.60;25.97;;;7.70;99.90;;;;;;5016347;28;20421;-78
2021/05/02 02:13:15;;;;;;;37.10;26.13;;;7.70;99.90;;;;;;4998970;28;20176;-78
2021/05/02 02:15:41;;;;;;;41.83;27.00;;;7.60;99.90;;;;;;5004986;28;20420;-78
2021/05/02 02:18:09;;;;;;;39.80;27.30;;;7.60;99.90;;;;;;4996361;28;20466;-77
2021/05/02 02:20:41;;;;;;;42.33;28.77;;;7.70;99.90;;;;;;4997098;28;20171;-77
2021/05/02 02:23:24;;;;;;;35.37;24.80;;;7.70;99.90;;;;;;4996677;28;20412;-77
2021/05/02 02:25:50;;;;;;;41.07;25.37;;;7.70;99.90;;;;;;4997099;28;20404;-77
2021/05/02 02:28:19;;;;;;;39.30;26.90;;;7.70;99.90;;;;;;4999324;28;20786;-79
2021/05/02 02:30:50;;;;;;;40.10;27.67;;;7.70;99.90;;;;;;5016793;28;20411;-77
2021/05/02 02:33:16;;;;;;;38.53;26.50;;;7.60;99.90;;;;;;5016385;28;20408;-78
2021/05/02 02:35:51;;;;;;;35.93;25.00;;;7.60;99.90;;;;;;5016393;28;20407;-77
2021/05/02 02:38:24;;;;;;;40.50;27.10;;;7.60;99.90;;;;;;5015845;28;20422;-78
2021/05/02 02:40:51;;;;;;;35.50;26.07;;;7.60;99.90;;;;;;5015776;28;20398;-78
2021/05/02 02:43:25;;;;;;;33.83;26.87;;;7.70;99.90;;;;;;5016419;28;20774;-77
2021/05/02 02:45:54;;;;;;;39.63;27.53;;;7.60;99.90;;;;;;5016093;28;20717;-77
2021/05/02 02:48:27;;;;;;;40.47;28.17;;;7.70;99.90;;;;;;5015396;28;20415;-77
2021/05/02 02:50:57;;;;;;;35.87;25.40;;;7.70;99.90;;;;;;5015260;28;20415;-77
2021/05/02 02:53:26;;;;;;;38.70;26.90;;;7.70;99.90;;;;;;5015521;28;20419;-77
2021/05/02 02:56:01;;;;;;;39.83;27.00;;;7.70;99.90;;;;;;5014026;28;20400;-77
2021/05/02 02:58:29;;;;;;;36.27;25.57;;;7.70;99.90;;;;;;5015012;28;20423;-78
2021/05/02 03:00:56;;;;;;;34.30;25.23;;;7.70;99.90;;;;;;5015471;28;20972;-78
2021/05/02 03:03:25;;;;;;;39.43;26.50;;;7.70;99.90;;;;;;5000707;28;20450;-78
2021/05/02 03:05:54;;;;;;;44.00;29.20;;;7.70;99.90;;;;;;5018039;28;20407;-78
2021/05/02 03:08:23;;;;;;;39.40;26.70;;;7.70;99.90;;;;;;5017720;28;20466;-78
2021/05/02 03:10:50;;;;;;;36.30;25.70;;;7.70;99.90;;;;;;5018152;28;20408;-78
2021/05/02 03:13:16;;;;;;;43.57;27.40;;;7.70;99.90;;;;;;5017637;28;20408;-78
2021/05/02 03:15:42;;;;;;;40.00;26.60;;;7.70;99.90;;;;;;4988576;28;20431;-78
2021/05/02 03:18:32;;;;;;;38.77;26.80;;;7.70;99.90;;;;;;4997264;28;20251;-77
2021/05/02 03:21:08;;;;;;;41.53;28.27;;;7.60;99.90;;;;;;4994223;28;20181;-77
2021/05/02 03:23:44;;;;;;;32.80;25.77;;;7.60;99.90;;;;;;4995797;28;20769;-77
2021/05/02 03:26:11;;;;;;;42.40;28.33;;;7.60;99.90;;;;;;4995968;28;20857;-77
2021/05/02 03:28:37;;;;;;;35.57;26.43;;;7.60;99.90;;;;;;4995784;28;20419;-77
2021/05/02 03:31:05;;;;;;;32.33;25.50;;;7.70;99.90;;;;;;4995587;28;20924;-77
2021/05/02 03:33:35;;;;;;;34.13;25.93;;;7.60;99.90;;;;;;4996665;28;20184;-78
2021/05/02 03:36:06;;;;;;;35.03;25.20;;;7.60;99.90;;;;;;4995874;28;20432;-78
2021/05/02 03:38:44;;;;;;;40.10;27.40;;;7.60;99.90;;;;;;4995269;28;20463;-78
2021/05/02 03:41:10;;;;;;;39.87;27.33;;;7.60;99.90;;;;;;4996197;28;20462;-78
2021/05/02 03:43:37;;;;;;;36.40;26.97;;;7.60;99.90;;;;;;4996749;28;20420;-78
2021/05/02 03:46:03;;;;;;;39.93;25.40;;;7.60;99.90;;;;;;5002485;28;20173;-77
2021/05/02 03:48:29;;;;;;;38.70;27.50;;;7.60;99.90;;;;;;5001586;28;20427;-77
2021/05/02 03:50:54;;;;;;;43.43;26.37;;;7.60;99.90;;;;;;5001044;28;20442;-80
2021/05/02 03:53:20;;;;;;;36.30;25.93;;;7.60;99.90;;;;;;4999299;28;20568;-78
2021/05/02 03:55:47;;;;;;;35.67;24.63;;;7.60;99.90;;;;;;4996575;28;20573;-77
2021/05/02 03:58:14;;;;;;;41.10;26.23;;;7.60;99.90;;;;;;4994471;28;20216;-77
2021/05/02 04:00:41;;;;;;;37.60;27.27;;;7.60;99.90;;;;;;4995084;28;20392;-77
2021/05/02 04:03:09;;;;;;;36.17;26.67;;;7.60;99.90;;;;;;4994561;28;20411;-77
2021/05/02 04:05:38;;;;;;;39.30;25.83;;;7.50;99.90;;;;;;5007366;28;20958;-77
2021/05/02 04:08:04;;;;;;;37.03;24.97;;;7.50;99.90;;;;;;5010925;28;20456;-78
2021/05/02 04:10:29;;;;;;;33.60;24.20;;;7.50;99.90;;;;;;5013398;28;20474;-77
2021/05/02 04:12:55;;;;;;;37.73;26.60;;;7.50;99.90;;;;;;4999452;28;20200;-77
2021/05/02 04:15:20;;;;;;;35.67;25.17;;;7.50;99.90;;;;;;5003096;28;20191;-78
2021/05/02 04:17:46;;;;;;;38.00;25.93;;;7.60;99.90;;;;;;5011268;28;20258;-77
2021/05/02 04:20:12;;;;;;;36.40;25.80;;;7.50;99.90;;;;;;5013904;28;20255;-77
2021/05/02 04:22:39;;;;;;;36.47;26.47;;;7.50;99.90;;;;;;5014101;28;20251;-77
2021/05/02 04:25:05;;;;;;;42.13;28.23;;;7.50;99.90;;;;;;5012252;28;20789;-77
2021/05/02 04:27:31;;;;;;;34.17;25.63;;;7.50;99.90;;;;;;5013445;28;20942;-77
2021/05/02 04:29:57;;;;;;;42.57;26.43;;;7.50;99.90;;;;;;4993558;28;20446;-78
2021/05/02 04:32:24;;;;;;;32.60;21.60;;;7.50;99.90;;;;;;5012206;28;20188;-78
2021/05/02 04:34:49;;;;;;;42.93;24.97;;;7.60;99.90;;;;;;4994972;28;20523;-78
2021/05/02 04:37:15;;;;;;;35.00;24.53;;;7.50;99.90;;;;;;5012565;28;21003;-77
2021/05/02 04:39:41;;;;;;;37.03;26.00;;;7.50;99.90;;;;;;4995569;28;20192;-78
2021/05/02 04:42:07;;;;;;;36.07;25.60;;;7.50;99.90;;;;;;5012523;28;20184;-78
2021/05/02 04:44:32;;;;;;;36.30;24.97;;;7.60;99.90;;;;;;4995171;28;20280;-77
2021/05/02 04:46:58;;;;;;;41.70;26.97;;;7.50;99.90;;;;;;5014245;28;20475;-78
2021/05/02 04:49:23;;;;;;;35.87;24.67;;;7.60;99.90;;;;;;4997254;28;20191;-78
2021/05/02 04:51:49;;;;;;;43.33;27.57;;;7.60;99.90;;;;;;5014246;28;20278;-78
2021/05/02 04:54:15;;;;;;;40.17;27.60;;;7.60;99.90;;;;;;5015456;28;20195;-78
2021/05/02 04:56:40;;;;;;;40.47;24.53;;;7.60;99.90;;;;;;5000789;28;20523;-78
2021/05/02 04:59:07;;;;;;;38.30;27.50;;;7.60;99.90;;;;;;4999515;28;20176;-78
2021/05/02 05:01:35;;;;;;;36.70;26.37;;;7.60;99.90;;;;;;5017519;28;20176;-78
2021/05/02 05:04:01;;;;;;;40.87;25.77;;;7.70;99.90;;;;;;5017182;28;20411;-78
2021/05/02 05:06:26;;;;;;;35.50;25.10;;;7.70;99.90;;;;;;5033062;28;20910;-78
2021/05/02 05:08:52;;;;;;;35.70;25.83;;;7.80;99.90;;;;;;5027159;28;20196;-78
2021/05/02 05:11:19;;;;;;;37.10;25.63;;;7.70;99.90;;;;;;5020294;28;20270;-78
2021/05/02 05:13:45;;;;;;;39.60;26.23;;;7.70;99.90;;;;;;5020518;28;20175;-78
2021/05/02 05:16:10;;;;;;;34.90;23.27;;;7.80;99.90;;;;;;5019616;28;20442;-78
2021/05/02 05:18:36;;;;;;;36.20;25.13;;;7.70;99.90;;;;;;5019421;28;20172;-77
2021/05/02 05:21:01;;;;;;;33.20;23.70;;;7.80;99.90;;;;;;5019144;28;20171;-78
2021/05/02 05:23:27;;;;;;;34.73;24.90;;;7.80;99.90;;;;;;5015715;28;20186;-77
2021/05/02 05:25:55;;;;;;;37.30;24.20;;;7.90;99.90;;;;;;5016235;28;20164;-77
2021/05/02 05:28:23;;;;;;;32.70;23.30;;;7.90;99.90;;;;;;5017259;28;20191;-77
2021/05/02 05:30:52;;;;;;;33.70;23.77;;;7.90;99.90;;;;;;5016935;28;20490;-77
2021/05/02 05:33:18;;;;;;;40.20;24.33;;;7.90;99.90;;;;;;5017002;28;20399;-78
2021/05/02 05:35:44;;;;;;;34.10;23.57;;;7.90;99.90;;;;;;5017257;28;20409;-78
2021/05/02 05:38:09;;;;;;;33.03;24.00;;;8.00;99.90;;;;;;5017201;28;20247;-77
2021/05/02 05:40:35;;;;;;;31.23;23.00;;;7.90;99.90;;;;;;5015938;28;20175;-77
2021/05/02 05:43:03;;;;;;;34.47;23.07;;;8.00;99.90;;;;;;5017044;28;20168;-77
2021/05/02 05:45:29;;;;;;;33.57;24.03;;;8.10;99.90;;;;;;5017059;28;20407;-78
2021/05/02 05:47:55;;;;;;;32.77;22.43;;;8.10;99.90;;;;;;5016555;28;20929;-78
2021/05/02 05:50:22;;;;;;;31.60;22.27;;;8.20;99.90;;;;;;4999617;28;20421;-78
2021/05/02 05:52:49;;;;;;;29.97;22.27;;;8.20;99.90;;;;;;5015479;28;20271;-80
2021/05/02 05:55:15;;;;;;;32.90;22.27;;;8.20;99.90;;;;;;5021686;28;20985;-79
2021/05/02 05:57:44;;;;;;;29.50;22.70;;;8.10;99.90;;;;;;5016650;28;20466;-77
2021/05/02 06:00:10;;;;;;;29.10;21.60;;;8.20;99.90;;;;;;5016668;28;20407;-78
2021/05/02 06:02:35;;;;;;;26.37;20.17;;;8.20;99.90;;;;;;4998143;28;20411;-77
2021/05/02 06:05:02;;;;;;;29.03;23.17;;;8.20;99.90;;;;;;5021784;28;20412;-76
2021/05/02 06:07:27;;;;;;;27.30;20.60;;;8.20;99.90;;;;;;5016249;28;20214;-78
2021/05/02 06:09:53;;;;;;;32.43;22.90;;;8.20;99.90;;;;;;5016201;28;20419;-77
2021/05/02 06:12:21;;;;;;;28.00;21.13;;;8.30;99.90;;;;;;5018264;28;20180;-78
2021/05/02 06:14:47;;;;;;;27.83;21.60;;;8.40;99.90;;;;;;4999223;28;20390;-77
2021/05/02 06:17:13;;;;;;;26.93;20.73;;;8.30;99.90;;;;;;5016066;28;20466;-75
2021/05/02 06:19:39;;;;;;;30.73;20.97;;;8.40;99.90;;;;;;5015940;28;21045;-75
2021/05/02 06:22:05;;;;;;;26.10;20.30;;;8.40;99.90;;;;;;5012139;28;20211;-77
2021/05/02 06:24:30;;;;;;;33.47;22.53;;;8.50;99.90;;;;;;5015442;28;20188;-77
2021/05/02 06:26:56;;;;;;;31.80;22.77;;;8.50;99.90;;;;;;5014665;28;20188;-77
2021/05/02 06:29:22;;;;;;;26.33;21.30;;;8.50;99.90;;;;;;5015008;28;20639;-77
2021/05/02 06:31:47;;;;;;;27.70;20.70;;;8.50;99.90;;;;;;5014641;28;20176;-77
2021/05/02 06:34:13;;;;;;;28.83;22.37;;;8.60;99.90;;;;;;5015065;28;20410;-77
2021/05/02 06:36:40;;;;;;;28.07;21.40;;;8.60;99.90;;;;;;5014708;28;20743;-78
2021/05/02 06:39:07;;;;;;;29.00;22.90;;;8.70;99.90;;;;;;5014733;28;20161;-78
2021/05/02 06:41:32;;;;;;;24.43;19.93;;;8.80;99.90;;;;;;4997035;28;20431;-77
2021/05/02 06:43:58;;;;;;;26.77;21.17;;;8.80;99.90;;;;;;5014269;28;20495;-77
2021/05/02 06:46:30;;;;;;;27.37;20.83;;;8.80;99.90;;;;;;5013705;28;20176;-76
2021/05/02 06:49:04;;;;;;;27.00;19.60;;;8.70;99.90;;;;;;5014374;28;20256;-76
2021/05/02 06:51:30;;;;;;;28.37;19.33;;;8.60;99.90;;;;;;5013764;28;20407;-77
2021/05/02 06:53:56;;;;;;;25.97;19.23;;;8.80;99.90;;;;;;5013933;28;20414;-77
2021/05/02 06:56:22;;;;;;;27.73;20.60;;;8.90;99.90;;;;;;5013482;28;20184;-77
2021/05/02 06:58:48;;;;;;;25.80;20.53;;;8.70;99.90;;;;;;5013973;28;20227;-76
2021/05/02 07:01:13;;;;;;;32.10;21.97;;;8.70;99.90;;;;;;5013868;28;20412;-76
2021/05/02 07:03:39;;;;;;;23.17;18.00;;;8.80;99.90;;;;;;5013945;28;20418;-77
2021/05/02 07:06:04;;;;;;;22.20;18.83;;;8.80;99.90;;;;;;5013780;28;20173;-77
2021/05/02 07:08:31;;;;;;;27.27;18.50;;;8.90;99.90;;;;;;5013690;28;20199;-77
2021/05/02 07:10:57;;;;;;;21.23;17.07;;;8.90;99.90;;;;;;5013606;28;20180;-77
2021/05/02 07:13:24;;;;;;;21.83;16.93;;;9.10;99.90;;;;;;5013585;28;20411;-77
2021/05/02 07:15:49;;;;;;;23.30;17.50;;;9.20;99.90;;;;;;5013567;28;20407;-76
2021/05/02 07:18:15;;;;;;;20.40;16.30;;;9.30;99.90;;;;;;5013864;28;20455;-76
2021/05/02 07:20:40;;;;;;;23.23;18.10;;;9.10;99.90;;;;;;4997134;28;20227;-77
2021/05/02 07:23:06;;;;;;;22.33;17.47;;;9.30;99.90;;;;;;5015627;28;20276;-77
2021/05/02 07:25:31;;;;;;;22.10;17.60;;;9.10;99.90;;;;;;5013937;28;20170;-78
2021/05/02 07:27:57;;;;;;;22.10;17.23;;;9.30;99.90;;;;;;5013558;28;20215;-77
2021/05/02 07:30:23;;;;;;;21.30;16.07;;;9.20;99.90;;;;;;5013490;28;20181;-77
2021/05/02 07:32:48;;;;;;;19.37;16.93;;;9.40;99.90;;;;;;5014051;28;20176;-78
2021/05/02 07:35:14;;;;;;;18.90;15.90;;;9.30;99.90;;;;;;5013690;28;20438;-78
2021/05/02 07:37:40;;;;;;;19.23;16.47;;;9.30;99.90;;;;;;5013743;28;20227;-78
2021/05/02 07:40:07;;;;;;;19.53;16.57;;;9.40;99.90;;;;;;5012122;28;20169;-77
2021/05/02 07:42:33;;;;;;;22.93;16.47;;;9.50;99.90;;;;;;5020027;28;20557;-76
2021/05/02 07:44:58;;;;;;;18.43;15.87;;;9.60;99.90;;;;;;5014365;28;20400;-76
2021/05/02 07:47:24;;;;;;;22.37;18.33;;;9.60;99.90;;;;;;4996813;28;20201;-77
2021/05/02 07:49:50;;;;;;;18.03;15.87;;;9.40;99.90;;;;;;5013071;28;20209;-77
2021/05/02 07:52:16;;;;;;;17.43;15.63;;;9.30;99.90;;;;;;5012638;28;20268;-77
2021/05/02 07:54:43;;;;;;;20.97;16.63;;;9.40;99.90;;;;;;5012803;28;20533;-76
2021/05/02 07:57:08;;;;;;;19.83;16.60;;;9.30;99.90;;;;;;5012519;28;20549;-77
2021/05/02 07:59:34;;;;;;;26.40;17.73;;;9.30;99.90;;;;;;5012772;28;20495;-77
2021/05/02 08:01:59;;;;;;;20.57;17.97;;;9.10;99.90;;;;;;5012663;28;20207;-78
2021/05/02 08:04:25;;;;;;;21.67;17.83;;;9.10;99.90;;;;;;5013527;28;20164;-76
2021/05/02 08:06:51;;;;;;;21.63;18.70;;;9.00;99.90;;;;;;5031973;28;20192;-77
2021/05/02 08:09:16;;;;;;;25.47;18.90;;;9.00;99.90;;;;;;5028454;28;20172;-77
2021/05/02 08:11:42;;;;;;;22.93;18.37;;;9.20;99.90;;;;;;5012924;28;20172;-77
2021/05/02 08:14:08;;;;;;;23.07;19.40;;;9.20;99.90;;;;;;5012752;28;20168;-77
2021/05/02 08:16:33;;;;;;;21.00;18.20;;;9.20;99.90;;;;;;5006237;28;20221;-78
2021/05/02 08:19:01;;;;;;;24.70;19.73;;;9.00;99.90;;;;;;5011487;28;20179;-78
2021/05/02 08:21:28;;;;;;;24.13;19.00;;;9.00;99.90;;;;;;5011276;28;20184;-77
2021/05/02 08:23:54;;;;;;;23.83;19.67;;;8.90;99.90;;;;;;5011534;28;20827;-77
2021/05/02 08:26:20;;;;;;;28.67;22.47;;;8.90;99.90;;;;;;5011447;28;20425;-78
2021/05/02 08:28:46;;;;;;;24.93;19.57;;;9.00;99.90;;;;;;5011673;28;20424;-77
2021/05/02 08:31:12;;;;;;;25.70;19.97;;;9.00;99.90;;;;;;5011214;28;20609;-77
2021/05/02 08:33:38;;;;;;;29.17;19.77;;;9.10;99.90;;;;;;5008546;28;20231;-77
2021/05/02 08:36:03;;;;;;;27.50;21.17;;;9.20;99.90;;;;;;5010772;28;20431;-77
2021/05/02 08:38:30;;;;;;;23.10;19.47;;;9.30;99.90;;;;;;5010448;28;20204;-77
2021/05/02 08:40:59;;;;;;;26.20;21.23;;;9.30;99.90;;;;;;4992926;28;20648;-77
2021/05/02 08:43:24;;;;;;;25.90;20.13;;;9.50;99.90;;;;;;4993364;28;20434;-78
2021/05/02 08:45:50;;;;;;;25.90;20.70;;;9.70;99.90;;;;;;5011076;28;20787;-78
2021/05/02 08:48:20;;;;;;;26.47;21.80;;;9.50;99.90;;;;;;5009376;28;20576;-77
2021/05/02 08:50:46;;;;;;;24.23;19.33;;;9.50;99.90;;;;;;4992194;28;20204;-77
2021/05/02 08:53:12;;;;;;;24.57;19.80;;;9.70;99.90;;;;;;5007127;28;20445;-78
2021/05/02 08:55:41;;;;;;;24.80;20.40;;;9.60;99.90;;;;;;5010916;28;20914;-76
2021/05/02 08:58:06;;;;;;;24.40;20.07;;;9.60;99.90;;;;;;5010435;28;20219;-77
2021/05/02 09:00:33;;;;;;;22.57;19.93;;;9.70;99.90;;;;;;5010705;28;20807;-77
2021/05/02 09:02:58;;;;;;;26.37;20.43;;;9.80;99.90;;;;;;5010483;28;20184;-78
2021/05/02 09:05:24;;;;;;;22.37;17.87;;;9.60;99.90;;;;;;5013262;28;20770;-78
2021/05/02 09:07:50;;;;;;;25.40;20.90;;;9.50;99.90;;;;;;5010502;28;20203;-77
2021/05/02 09:10:18;;;;;;;30.47;23.17;;;9.40;99.90;;;;;;5008820;28;20188;-77
2021/05/02 09:12:57;;;;;;;27.00;21.67;;;9.50;99.90;;;;;;5010507;28;20482;-75
2021/05/02 09:15:23;;;;;;;28.70;21.50;;;9.70;99.90;;;;;;5007870;28;20884;-76
2021/05/02 09:17:56;;;;;;;25.50;20.70;;;9.90;99.90;;;;;;4992676;28;20550;-77
2021/05/02 09:20:48;;;;;;;26.20;20.23;;;9.80;99.90;;;;;;5008701;28;20186;-76
2021/05/02 09:23:14;;;;;;;24.93;20.20;;;9.80;99.90;;;;;;4992162;28;20401;-77
2021/05/02 09:25:51;;;;;;;25.03;19.30;;;10.00;99.90;;;;;;4992094;28;20425;-76
2021/05/02 09:28:18;;;;;;;31.67;22.03;;;10.00;99.90;;;;;;4991658;28;20427;-77
2021/05/02 09:30:44;;;;;;;23.40;18.90;;;10.20;99.90;;;;;;5007895;28;20423;-78
2021/05/02 09:33:24;;;;;;;25.10;20.57;;;10.20;99.90;;;;;;5011630;28;20411;-76
2021/05/02 09:35:51;;;;;;;25.77;20.77;;;10.40;99.90;;;;;;5011804;28;20175;-77
2021/05/02 09:38:18;;;;;;;22.40;19.80;;;10.50;99.90;;;;;;5010603;28;20478;-77
2021/05/02 09:40:55;;;;;;;26.70;21.10;;;10.60;99.90;;;;;;5011393;28;20418;-77
2021/05/02 09:43:44;;;;;;;26.23;21.63;;;10.60;99.90;;;;;;5011374;28;20414;-77
2021/05/02 09:46:30;;;;;;;23.27;20.00;;;10.70;99.90;;;;;;5011016;28;20462;-76
2021/05/02 09:49:19;;;;;;;21.43;19.23;;;11.00;99.90;;;;;;5011331;28;20407;-77
2021/05/02 09:51:51;;;;;;;25.07;20.37;;;10.70;99.90;;;;;;5011216;28;20544;-77
2021/05/02 09:54:21;;;;;;;24.10;21.00;;;10.70;99.90;;;;;;5012955;28;20407;-77
2021/05/02 09:56:51;;;;;;;24.13;20.20;;;10.80;99.90;;;;;;5014598;28;20466;-77
2021/05/02 09:59:28;;;;;;;23.73;20.83;;;10.80;99.90;;;;;;5015064;28;20489;-76
2021/05/02 10:02:11;;;;;;;22.27;18.70;;;10.70;99.90;;;;;;5014559;28;20402;-76
2021/05/02 10:04:52;;;;;;;22.30;18.47;;;10.80;99.90;;;;;;5017203;28;20403;-76
2021/05/02 10:07:21;;;;;;;23.03;19.87;;;10.90;99.90;;;;;;5027664;28;20435;-77
2021/05/02 10:09:47;;;;;;;19.83;17.40;;;11.00;99.90;;;;;;5014803;28;20454;-76
2021/05/02 10:12:14;;;;;;;19.23;17.10;;;10.80;99.90;;;;;;5014783;28;21103;-76
2021/05/02 10:14:42;;;;;;;18.97;16.90;;;11.00;99.90;;;;;;5011434;28;20416;-77
2021/05/02 10:17:08;;;;;;;20.53;17.80;;;10.90;99.90;;;;;;5012292;28;20462;-77
2021/05/02 10:19:34;;;;;;;18.90;16.13;;;11.00;99.90;;;;;;5014633;28;20801;-76
2021/05/02 10:22:00;;;;;;;19.87;17.77;;;11.20;99.90;;;;;;5014575;28;20461;-76
2021/05/02 10:24:26;;;;;;;18.50;16.17;;;11.10;99.90;;;;;;5014668;28;20876;-77
2021/05/02 10:26:53;;;;;;;17.50;15.70;;;11.20;99.90;;;;;;5014272;28;20435;-76
2021/05/02 10:29:27;;;;;;;20.33;17.33;;;11.50;99.90;;;;;;5014564;28;20167;-76
2021/05/02 10:32:10;;;;;;;18.63;16.50;;;11.50;99.90;;;;;;5014605;28;20411;-77
2021/05/02 10:34:48;;;;;;;17.87;15.33;;;11.70;99.90;;;;;;5014706;28;20518;-77
2021/05/02 10:37:27;;;;;;;19.33;16.00;;;11.70;99.90;;;;;;5014541;28;20830;-78
2021/05/02 10:40:06;;;;;;;16.80;14.93;;;11.90;99.90;;;;;;5014387;28;20510;-77
2021/05/02 10:42:38;;;;;;;19.73;15.70;;;11.50;99.90;;;;;;5014171;28;20403;-77
2021/05/02 10:45:33;;;;;;;20.80;17.10;;;11.70;99.90;;;;;;5010190;28;20438;-77
2021/05/02 10:48:00;;;;;;;16.90;15.20;;;11.50;99.90;;;;;;5014430;28;20445;-76
2021/05/02 10:50:27;;;;;;;20.10;16.27;;;11.40;99.90;;;;;;5014384;28;20970;-74
2021/05/02 10:53:15;;;;;;;19.90;15.60;;;11.70;99.90;;;;;;5015566;28;20522;-79
2021/05/02 10:56:06;;;;;;;17.40;15.60;;;12.10;99.90;;;;;;5017914;28;20755;-78
2021/05/02 10:58:34;;;;;;;18.00;15.50;;;12.20;99.90;;;;;;5013602;28;23037;-78
2021/05/02 11:01:03;;;;;;;16.60;14.67;;;12.10;99.90;;;;;;4999093;28;20419;-78
2021/05/02 11:03:37;;;;;;;17.77;14.37;;;11.90;99.90;;;;;;5011309;28;20765;-78
2021/05/02 11:06:14;;;;;;;15.23;13.60;;;11.90;99.90;;;;;;5014873;28;20403;-75
2021/05/02 11:08:50;;;;;;;20.20;15.70;;;12.10;99.90;;;;;;5013969;28;20444;-76
2021/05/02 11:11:33;;;;;;;15.50;13.20;;;12.00;99.90;;;;;;4994056;28;20396;-74
2021/05/02 11:14:11;;;;;;;16.57;14.57;;;11.80;99.90;;;;;;5009720;28;20407;-73
2021/05/02 11:16:42;;;;;;;19.03;13.73;;;11.60;99.90;;;;;;5012744;28;20467;-74
2021/05/02 11:19:09;;;;;;;15.97;14.13;;;11.80;99.90;;;;;;5015134;28;20418;-75
2021/05/02 11:21:50;;;;;;;17.40;14.90;;;12.10;99.90;;;;;;5011021;28;20477;-75
2021/05/02 11:24:36;;;;;;;16.50;14.47;;;12.10;99.90;;;;;;5009356;28;20465;-75
2021/05/02 11:32:26;;;;;;;19.57;15.53;;;12.30;99.90;;;;;;5012802;28;20469;-75
2021/05/02 11:35:00;;;;;;;21.03;14.47;;;11.80;99.90;;;;;;5013181;28;20430;-74
2021/05/02 11:37:44;;;;;;;17.77;12.70;;;11.70;99.90;;;;;;5012803;28;20461;-74
2021/05/02 11:40:27;;;;;;;18.87;14.60;;;11.90;99.90;;;;;;5013217;28;20407;-74
2021/05/02 11:43:03;;;;;;;16.00;14.30;;;12.10;99.90;;;;;;5013143;28;20403;-75
2021/05/02 11:45:43;;;;;;;16.13;14.50;;;12.00;99.90;;;;;;5013334;28;20965;-74
2021/05/02 11:48:15;;;;;;;17.23;14.60;;;11.80;99.90;;;;;;5012974;28;20851;-74
2021/05/02 11:50:42;;;;;;;17.70;15.37;;;11.70;99.90;;;;;;5013267;28;20465;-75
2021/05/02 11:53:08;;;;;;;16.37;13.20;;;11.40;99.90;;;;;;5013000;28;20427;-75
2021/05/02 11:55:43;;;;;;;15.13;13.57;;;11.60;99.90;;;;;;5013035;28;20473;-74
2021/05/02 11:58:14;;;;;;;20.30;15.20;;;11.30;99.90;;;;;;5012559;28;20203;-74
2021/05/02 12:00:45;;;;;;;18.63;15.77;;;11.30;99.90;;;;;;5012494;28;20444;-75
2021/05/02 12:03:12;;;;;;;21.37;16.20;;;11.30;99.90;;;;;;5013046;28;20403;-75
2021/05/02 12:05:57;;;;;;;19.97;16.57;;;11.40;99.90;;;;;;5023486;28;20405;-74
2021/05/02 12:08:25;;;;;;;18.57;16.60;;;11.20;99.90;;;;;;5015549;28;20461;-75
2021/05/02 12:11:05;;;;;;;19.13;16.17;;;11.30;99.90;;;;;;5012745;28;20426;-76
2021/05/02 12:13:39;;;;;;;18.40;15.70;;;11.20;99.90;;;;;;4994980;28;20419;-74
2021/05/02 12:16:13;;;;;;;20.93;16.53;;;11.40;99.90;;;;;;5012054;28;20787;-75
2021/05/02 12:18:57;;;;;;;23.07;16.30;;;11.50;99.90;;;;;;5012688;28;20884;-75
2021/05/02 12:21:36;;;;;;;18.00;15.47;;;11.80;99.90;;;;;;5011873;28;20429;-75
2021/05/02 12:24:10;;;;;;;17.83;15.67;;;11.80;99.90;;;;;;4994830;28;20423;-75
2021/05/02 12:26:43;;;;;;;16.80;15.00;;;11.80;99.90;;;;;;5011999;28;20527;-74
2021/05/02 12:29:12;;;;;;;19.50;17.60;;;11.70;99.90;;;;;;4994600;28;20549;-75
2021/05/02 12:31:38;;;;;;;19.17;14.97;;;12.10;99.90;;;;;;5011679;28;20453;-76
2021/05/02 12:34:13;;;;;;;23.30;15.93;;;12.30;99.90;;;;;;5012224;28;20826;-77
2021/05/02 12:36:38;;;;;;;16.93;14.63;;;12.50;99.90;;;;;;5011690;28;20462;-76
2021/05/02 12:39:09;;;;;;;17.13;14.60;;;12.70;99.90;;;;;;5011853;28;20766;-76
2021/05/02 12:41:36;;;;;;;16.63;14.00;;;12.90;99.90;;;;;;5011556;28;20161;-76
2021/05/02 12:44:28;;;;;;;14.83;13.43;;;12.80;99.90;;;;;;5012070;28;20450;-77
2021/05/02 12:46:56;;;;;;;17.23;14.20;;;13.00;99.90;;;;;;4993621;28;20937;-76
2021/05/02 12:49:23;;;;;;;19.17;13.67;;;12.90;99.90;;;;;;5011835;28;20490;-76